Terminal Aerodrome Forecast
Issued by NWS Cleveland, OH

Home | Current Version | Previous Version | Graphics & Text | Print | Product List | Glossary Off
Versions: 1 2 3 4 5 6 7 8 9 10 11 12 13 14 15 16 17 18 19

000
FTUS41 KCLE 100238 AAA
TAFMFD
TAF AMD
KMFD 100238Z 1003/1024 28008KT P6SM VCSH SCT008 OVC015
     FM101100 26010KT P6SM OVC015
     FM101600 24013KT P6SM SCT015 OVC025=

USA.gov is the U.S. government's official web portal to all federal, state and local government web resources and services.